createdAt,value
2017-12-14T00:01:45.047Z,6.87
2017-12-14T00:04:12.637Z,6.82
2017-12-14T00:06:40.257Z,6.77
2017-12-14T00:09:07.884Z,6.75
2017-12-14T00:11:35.514Z,6.76
2017-12-14T00:14:03.176Z,6.74
2017-12-14T00:16:30.766Z,6.75
2017-12-14T00:18:58.376Z,6.69
2017-12-14T00:21:25.958Z,6.66
2017-12-14T00:23:53.574Z,6.67
2017-12-14T00:26:21.168Z,6.62
2017-12-14T00:28:48.894Z,6.60
2017-12-14T00:31:16.515Z,6.59
2017-12-14T00:33:44.172Z,6.56
2017-12-14T00:36:11.790Z,6.56
2017-12-14T00:38:39.407Z,6.51
2017-12-14T00:41:07.070Z,6.47
2017-12-14T00:43:34.643Z,6.50
2017-12-14T00:46:02.245Z,6.52
2017-12-14T00:48:29.825Z,6.49
2017-12-14T00:50:57.474Z,6.48
2017-12-14T00:53:25.080Z,6.50
2017-12-14T00:55:52.699Z,6.48
2017-12-14T00:58:20.273Z,6.44
2017-12-14T01:00:47.963Z,6.45
2017-12-14T01:03:15.519Z,6.45
2017-12-14T01:05:43.122Z,6.43
2017-12-14T01:08:10.819Z,6.42
2017-12-14T01:10:38.428Z,6.42
2017-12-14T01:13:06.011Z,6.40
2017-12-14T01:15:33.598Z,6.39
2017-12-14T01:18:01.218Z,6.43
2017-12-14T01:20:28.822Z,6.41
2017-12-14T01:22:56.491Z,6.38
2017-12-14T01:25:24.074Z,6.36
2017-12-14T01:27:51.686Z,6.34
2017-12-14T01:30:19.270Z,6.32
2017-12-14T01:32:46.882Z,6.28
2017-12-14T01:35:14.471Z,6.25
2017-12-14T01:37:42.114Z,6.26
2017-12-14T01:40:09.694Z,6.27
2017-12-14T01:42:37.306Z,6.30
2017-12-14T01:45:04.889Z,6.34
2017-12-14T01:47:32.497Z,6.35
2017-12-14T01:50:00.074Z,6.34
2017-12-14T01:52:27.741Z,6.34
2017-12-14T01:54:55.325Z,6.32
2017-12-14T01:57:22.954Z,6.34
2017-12-14T01:59:50.540Z,6.37
2017-12-14T02:02:18.145Z,6.40
2017-12-14T02:04:45.725Z,6.38
2017-12-14T02:07:13.342Z,6.38
2017-12-14T02:09:40.926Z,6.38
2017-12-14T02:12:08.674Z,6.36
2017-12-14T02:14:36.272Z,6.37
2017-12-14T02:17:03.870Z,6.38
2017-12-14T02:19:31.438Z,6.36
2017-12-14T02:21:59.018Z,6.37
2017-12-14T02:24:26.634Z,6.37
2017-12-14T02:26:54.219Z,6.40
2017-12-14T02:29:21.842Z,6.46
2017-12-14T02:31:49.427Z,6.48
2017-12-14T02:34:17.031Z,6.47
2017-12-14T02:36:44.625Z,6.51
2017-12-14T02:39:12.234Z,6.52
2017-12-14T02:41:39.816Z,6.57
2017-12-14T02:44:07.431Z,6.59
2017-12-14T02:46:35.108Z,6.52
2017-12-14T02:49:02.742Z,6.51
2017-12-14T02:51:30.331Z,6.38
2017-12-14T02:53:58.058Z,6.15
2017-12-14T02:56:25.631Z,5.80
2017-12-14T02:58:53.242Z,5.49
2017-12-14T03:01:20.842Z,5.12
2017-12-14T03:03:55.077Z,4.78
2017-12-14T03:06:22.650Z,4.66
2017-12-14T03:08:50.264Z,4.35
2017-12-14T03:11:17.870Z,4.13
2017-12-14T03:13:45.492Z,3.83
2017-12-14T03:16:13.099Z,3.68
2017-12-14T03:18:40.794Z,3.61
2017-12-14T03:21:08.469Z,3.53
2017-12-14T03:23:36.197Z,3.50
2017-12-14T03:26:03.846Z,3.44
2017-12-14T03:28:31.543Z,3.51
2017-12-14T03:30:59.207Z,3.58
2017-12-14T03:33:26.883Z,3.59
2017-12-14T03:35:54.549Z,3.63
2017-12-14T03:38:22.291Z,3.71
2017-12-14T03:40:49.941Z,3.71
2017-12-14T03:43:17.609Z,3.78
2017-12-14T03:45:45.319Z,3.83
2017-12-14T03:48:13.009Z,3.91
2017-12-14T03:50:40.663Z,3.96
2017-12-14T03:53:08.355Z,4.03
2017-12-14T03:55:36.003Z,4.16
2017-12-14T03:58:03.756Z,4.26
2017-12-14T04:00:31.402Z,4.35
2017-12-14T04:02:58.991Z,4.47
2017-12-14T04:05:26.604Z,4.58
2017-12-14T04:07:54.261Z,4.67
2017-12-14T04:10:21.951Z,4.76
2017-12-14T04:12:49.537Z,4.88
2017-12-14T04:15:17.148Z,4.94
2017-12-14T04:17:44.806Z,4.97
2017-12-14T04:20:12.443Z,5.04
2017-12-14T04:22:39.999Z,5.02
2017-12-14T04:25:07.598Z,5.01
2017-12-14T04:27:35.226Z,4.98
2017-12-14T04:30:02.818Z,4.93
2017-12-14T04:32:30.406Z,4.95
2017-12-14T04:34:58.045Z,4.91
2017-12-14T04:37:25.624Z,4.90
2017-12-14T04:39:53.340Z,4.87
2017-12-14T04:42:20.919Z,4.86
2017-12-14T04:44:48.670Z,4.85
2017-12-14T04:47:16.231Z,4.85
2017-12-14T04:49:43.852Z,4.73
2017-12-14T04:52:11.465Z,4.64
2017-12-14T04:54:39.042Z,4.54
2017-12-14T04:57:06.642Z,4.42
2017-12-14T04:59:34.251Z,4.35
2017-12-14T05:02:01.885Z,4.32
2017-12-14T05:04:29.531Z,4.27
2017-12-14T05:06:57.233Z,4.22
2017-12-14T05:09:24.807Z,4.18
2017-12-14T05:11:52.522Z,4.15
2017-12-14T05:14:20.167Z,4.11
2017-12-14T05:16:47.854Z,4.10
2017-12-14T05:19:15.414Z,4.03
2017-12-14T05:21:43.016Z,3.93
2017-12-14T05:24:10.659Z,3.79
2017-12-14T05:26:38.333Z,3.65
2017-12-14T05:29:06.005Z,3.49
2017-12-14T05:31:33.690Z,3.39
2017-12-14T05:34:01.421Z,3.30
2017-12-14T05:36:29.142Z,3.30
2017-12-14T05:38:56.902Z,3.34
2017-12-14T05:41:24.687Z,3.31
2017-12-14T05:43:52.378Z,3.33
2017-12-14T05:46:20.135Z,3.37
2017-12-14T05:48:47.809Z,3.42
2017-12-14T05:51:15.499Z,3.48
2017-12-14T05:53:43.155Z,3.50
2017-12-14T05:56:10.817Z,3.47
2017-12-14T05:58:38.555Z,3.51
2017-12-14T06:01:06.214Z,3.56
2017-12-14T06:03:33.929Z,3.57
2017-12-14T06:06:01.618Z,3.65
2017-12-14T06:08:29.259Z,3.72
2017-12-14T06:10:56.946Z,3.77
2017-12-14T06:13:24.619Z,3.86
2017-12-14T06:15:52.274Z,3.90
2017-12-14T06:18:19.979Z,3.93
2017-12-14T06:20:47.669Z,3.95
2017-12-14T06:23:15.322Z,3.99
2017-12-14T06:25:43.034Z,4.06
2017-12-14T06:28:10.683Z,4.12
2017-12-14T06:30:38.257Z,4.16
2017-12-14T06:33:05.946Z,4.24
2017-12-14T06:35:33.670Z,4.39
2017-12-14T06:38:01.434Z,4.56
2017-12-14T06:40:29.155Z,4.67
2017-12-14T06:42:56.895Z,4.77
2017-12-14T06:45:24.625Z,4.83
2017-12-14T06:47:52.362Z,4.87
2017-12-14T06:50:20.014Z,4.89
2017-12-14T06:52:47.782Z,4.97
2017-12-14T06:55:15.354Z,5.01
2017-12-14T06:57:42.964Z,5.01
2017-12-14T07:00:10.567Z,5.07
2017-12-14T07:02:38.221Z,5.11
2017-12-14T07:05:05.831Z,5.09
2017-12-14T07:07:33.466Z,5.14
2017-12-14T07:10:01.151Z,5.36
2017-12-14T07:12:28.750Z,5.24
2017-12-14T07:14:56.354Z,5.15
2017-12-14T07:17:23.947Z,5.11
2017-12-14T07:19:51.577Z,5.06
2017-12-14T07:22:19.174Z,5.05
2017-12-14T07:24:46.803Z,5.06
2017-12-14T07:27:14.394Z,5.04
2017-12-14T07:29:41.994Z,5.01
2017-12-14T07:32:09.574Z,5.02
2017-12-14T07:34:37.216Z,5.03
2017-12-14T07:37:04.817Z,5.02
2017-12-14T07:39:32.434Z,5.06
2017-12-14T07:42:00.002Z,5.06
2017-12-14T07:44:29.194Z,5.05
2017-12-14T07:47:08.449Z,5.07
2017-12-14T07:49:36.065Z,5.05
2017-12-14T07:52:03.651Z,5.04
2017-12-14T07:54:31.216Z,5.12
2017-12-14T07:56:58.831Z,5.13
2017-12-14T07:59:26.406Z,5.16
2017-12-14T08:01:54.020Z,5.19
2017-12-14T08:04:21.601Z,5.18
2017-12-14T08:06:49.230Z,5.18
2017-12-14T08:09:16.825Z,5.20
2017-12-14T08:11:44.423Z,5.22
2017-12-14T08:14:11.990Z,5.20
2017-12-14T08:16:39.642Z,5.21
2017-12-14T08:19:07.315Z,5.24
2017-12-14T08:21:34.966Z,5.28
2017-12-14T08:24:02.573Z,5.33
2017-12-14T08:26:30.170Z,5.43
2017-12-14T08:28:57.788Z,5.47
2017-12-14T08:31:25.374Z,5.47
2017-12-14T08:33:53.006Z,5.47
2017-12-14T08:36:20.630Z,5.47
2017-12-14T08:38:48.246Z,5.52
2017-12-14T08:41:15.826Z,5.55
2017-12-14T08:43:43.443Z,5.56
2017-12-14T08:46:11.094Z,5.61
2017-12-14T08:48:38.711Z,5.62
2017-12-14T08:51:06.294Z,5.63
2017-12-14T08:53:33.894Z,5.64
2017-12-14T08:56:01.486Z,5.63
2017-12-14T08:58:29.103Z,5.63
2017-12-14T09:00:56.675Z,5.68
2017-12-14T09:03:24.285Z,5.71
2017-12-14T09:05:51.853Z,5.73
2017-12-14T09:08:19.494Z,5.76
2017-12-14T09:10:47.083Z,5.77
2017-12-14T09:13:14.658Z,5.79
2017-12-14T09:15:42.266Z,5.82
2017-12-14T09:18:09.830Z,5.84
2017-12-14T09:20:37.438Z,5.84
2017-12-14T09:23:05.030Z,5.84
2017-12-14T09:25:32.642Z,5.87
2017-12-14T09:28:00.231Z,5.91
2017-12-14T09:30:27.841Z,5.92
2017-12-14T09:32:55.411Z,5.94
2017-12-14T09:35:23.049Z,5.98
2017-12-14T09:37:50.623Z,5.97
2017-12-14T09:40:18.261Z,6.05
2017-12-14T09:42:45.898Z,6.08
2017-12-14T09:45:13.547Z,6.15
2017-12-14T09:47:41.119Z,6.15
2017-12-14T09:50:08.785Z,6.19
2017-12-14T09:52:36.351Z,6.25
2017-12-14T09:55:03.998Z,6.28
2017-12-14T09:57:31.586Z,6.24
2017-12-14T09:59:59.191Z,6.21
2017-12-14T10:02:26.766Z,6.22
2017-12-14T10:04:54.438Z,6.24
2017-12-14T10:07:22.051Z,6.07
2017-12-14T10:09:49.643Z,6.04
2017-12-14T10:12:17.221Z,5.95
2017-12-14T10:14:44.829Z,5.93
2017-12-14T10:17:13.205Z,5.88
2017-12-14T10:19:40.894Z,5.79
2017-12-14T10:22:08.597Z,5.75
2017-12-14T10:24:36.251Z,5.77
2017-12-14T10:27:03.865Z,5.77
2017-12-14T10:29:31.474Z,5.77
2017-12-14T10:31:59.078Z,5.80
2017-12-14T10:34:26.703Z,5.78
2017-12-14T10:36:54.286Z,5.77
2017-12-14T10:39:21.906Z,5.77
2017-12-14T10:41:49.540Z,5.81
2017-12-14T10:44:17.190Z,5.83
2017-12-14T10:46:44.787Z,5.86
2017-12-14T10:49:12.411Z,5.85
2017-12-14T10:51:40.011Z,5.87
2017-12-14T10:54:07.616Z,5.86
2017-12-14T10:56:35.235Z,5.85
2017-12-14T10:59:02.868Z,5.87
2017-12-14T11:01:30.458Z,5.83
2017-12-14T11:03:58.070Z,5.85
2017-12-14T11:06:25.678Z,5.82
2017-12-14T11:08:53.271Z,5.82
2017-12-14T11:11:20.884Z,5.81
2017-12-14T11:13:48.504Z,5.86
2017-12-14T11:16:16.081Z,5.86
2017-12-14T11:18:43.739Z,5.87
2017-12-14T11:21:11.342Z,5.86
2017-12-14T11:23:38.914Z,5.84
2017-12-14T11:26:06.612Z,5.79
2017-12-14T11:28:34.206Z,5.78
2017-12-14T11:31:01.850Z,5.76
2017-12-14T11:33:29.431Z,5.73
2017-12-14T11:35:57.061Z,5.67
2017-12-14T11:38:24.659Z,5.61
2017-12-14T11:40:52.290Z,5.45
2017-12-14T11:43:19.880Z,5.28
2017-12-14T11:45:47.501Z,5.16
2017-12-14T11:48:15.130Z,5.13
2017-12-14T11:50:42.763Z,5.15
2017-12-14T11:53:10.363Z,5.15
2017-12-14T11:55:37.990Z,5.15
2017-12-14T11:58:05.614Z,5.28
2017-12-14T12:00:33.207Z,5.33
2017-12-14T12:03:00.830Z,5.30
2017-12-14T12:05:28.442Z,5.29
2017-12-14T12:07:56.035Z,5.30
2017-12-14T12:10:23.648Z,5.32
2017-12-14T12:12:51.211Z,5.35
2017-12-14T12:15:18.829Z,5.38
2017-12-14T12:17:46.411Z,5.44
2017-12-14T12:20:13.995Z,5.45
2017-12-14T12:22:41.607Z,5.47
2017-12-14T12:25:09.201Z,5.50
2017-12-14T12:27:36.779Z,5.53
2017-12-14T12:30:04.414Z,5.56
2017-12-14T12:32:31.992Z,5.60
2017-12-14T12:34:59.623Z,5.63
2017-12-14T12:37:27.390Z,5.64
2017-12-14T12:39:55.022Z,5.67
2017-12-14T12:42:22.590Z,5.68
2017-12-14T12:44:50.361Z,5.70
2017-12-14T12:47:17.946Z,5.73
2017-12-14T12:49:45.566Z,5.80
2017-12-14T12:52:13.175Z,5.79
2017-12-14T12:54:40.783Z,5.83
2017-12-14T12:57:08.362Z,5.84
2017-12-14T12:59:35.961Z,5.91
2017-12-14T13:02:03.584Z,5.93
2017-12-14T13:04:31.202Z,5.92
2017-12-14T13:06:58.758Z,5.94
2017-12-14T13:09:26.368Z,5.93
2017-12-14T13:11:53.941Z,5.89
2017-12-14T13:14:21.559Z,5.88
2017-12-14T13:16:49.139Z,5.84
2017-12-14T13:19:16.787Z,5.84
2017-12-14T13:21:44.370Z,5.82
2017-12-14T13:24:11.967Z,5.84
2017-12-14T13:26:39.525Z,5.81
2017-12-14T13:29:07.148Z,5.82
2017-12-14T13:31:34.734Z,5.79
2017-12-14T13:34:02.365Z,5.76
2017-12-14T13:36:29.938Z,5.76
2017-12-14T13:38:57.527Z,5.80
2017-12-14T13:41:25.127Z,5.76
2017-12-14T13:43:52.707Z,5.78
2017-12-14T13:46:20.347Z,5.80
2017-12-14T13:48:47.917Z,5.80
2017-12-14T13:51:15.534Z,5.92
2017-12-14T13:53:43.138Z,5.92
2017-12-14T13:56:10.736Z,5.85
2017-12-14T13:58:38.338Z,5.87
2017-12-14T14:01:05.922Z,5.85
2017-12-14T14:03:33.517Z,5.82
2017-12-14T14:06:01.118Z,5.81
2017-12-14T14:08:28.699Z,5.82
2017-12-14T14:10:56.379Z,5.79
2017-12-14T14:13:23.946Z,5.81
2017-12-14T14:15:51.522Z,5.79
2017-12-14T14:18:19.137Z,5.79
2017-12-14T14:20:46.797Z,5.82
2017-12-14T14:23:14.385Z,5.81
2017-12-14T14:25:41.954Z,5.80
2017-12-14T14:28:09.571Z,5.79
2017-12-14T14:30:37.159Z,5.79
2017-12-14T14:33:04.890Z,5.73
2017-12-14T14:35:32.483Z,5.75
2017-12-14T14:38:00.131Z,5.74
2017-12-14T14:40:27.714Z,5.74
2017-12-14T14:42:55.379Z,5.71
2017-12-14T14:45:22.898Z,5.72
2017-12-14T14:47:50.635Z,5.69
2017-12-14T14:50:18.222Z,5.65
2017-12-14T14:52:45.859Z,5.64
2017-12-14T14:55:13.970Z,5.66
2017-12-14T14:57:41.608Z,5.69
2017-12-14T15:00:09.174Z,5.64
2017-12-14T15:02:36.824Z,5.63
2017-12-14T15:05:04.419Z,5.62
2017-12-14T15:07:32.099Z,5.62
2017-12-14T15:09:59.701Z,5.61
2017-12-14T15:12:27.355Z,5.58
2017-12-14T15:14:54.943Z,5.60
2017-12-14T15:17:22.612Z,5.61
2017-12-14T15:19:50.194Z,5.56
2017-12-14T15:22:17.876Z,5.52
2017-12-14T15:24:45.487Z,5.49
2017-12-14T15:27:13.124Z,5.46
2017-12-14T15:29:40.711Z,5.46
2017-12-14T15:32:08.382Z,5.49
2017-12-14T15:34:35.959Z,5.48
2017-12-14T15:37:03.590Z,5.45
2017-12-14T15:39:31.202Z,5.43
2017-12-14T15:41:58.815Z,5.38
2017-12-14T15:44:26.493Z,5.35
2017-12-14T15:46:54.101Z,5.38
2017-12-14T15:49:21.751Z,5.40
2017-12-14T15:51:49.423Z,5.40
2017-12-14T15:54:17.031Z,5.40
2017-12-14T15:56:44.714Z,5.44
2017-12-14T15:59:12.325Z,5.46
2017-12-14T16:01:39.934Z,5.42
2017-12-14T16:04:07.550Z,5.42
2017-12-14T16:06:35.150Z,5.41
2017-12-14T16:09:02.750Z,5.45
2017-12-14T16:11:30.384Z,5.45
2017-12-14T16:13:58.006Z,5.43
2017-12-14T16:16:25.670Z,5.44
2017-12-14T16:18:53.263Z,5.43
2017-12-14T16:21:20.883Z,5.43
2017-12-14T16:23:48.642Z,5.40
2017-12-14T16:26:16.320Z,5.43
2017-12-14T16:28:43.958Z,5.44
2017-12-14T16:31:11.613Z,5.41
2017-12-14T16:33:39.198Z,5.39
2017-12-14T16:36:06.853Z,5.39
2017-12-14T16:38:34.468Z,5.39
2017-12-14T16:41:02.096Z,5.40
2017-12-14T16:43:29.702Z,5.36
2017-12-14T16:45:57.326Z,5.33
2017-12-14T16:48:24.914Z,5.30
2017-12-14T16:50:52.532Z,5.26
2017-12-14T16:53:20.137Z,5.25
2017-12-14T16:55:47.786Z,5.24
2017-12-14T16:58:15.382Z,5.21
2017-12-14T17:00:43.025Z,5.19
2017-12-14T17:03:10.587Z,5.19
2017-12-14T17:05:38.252Z,5.15
2017-12-14T17:08:05.851Z,5.15
2017-12-14T17:10:33.478Z,5.12
2017-12-14T17:13:01.083Z,5.13
2017-12-14T17:15:28.717Z,5.11
2017-12-14T17:17:56.413Z,5.08
2017-12-14T17:20:24.086Z,5.08
2017-12-14T17:22:51.770Z,5.11
2017-12-14T17:25:19.383Z,5.09
2017-12-14T17:27:46.985Z,5.10
2017-12-14T17:30:14.633Z,5.08
2017-12-14T17:32:42.224Z,5.13
2017-12-14T17:35:09.845Z,5.12
2017-12-14T17:37:37.447Z,5.11
2017-12-14T17:40:05.088Z,5.11
2017-12-14T17:42:32.757Z,5.15
2017-12-14T17:45:00.403Z,5.15
2017-12-14T17:47:28.020Z,5.13
2017-12-14T17:49:55.671Z,5.09
2017-12-14T17:52:23.262Z,5.08
2017-12-14T17:54:50.851Z,5.14
2017-12-14T17:57:18.615Z,5.14
2017-12-14T17:59:46.327Z,5.16
2017-12-14T18:02:13.956Z,5.17
2017-12-14T18:04:41.613Z,5.16
2017-12-14T18:07:09.229Z,5.21
2017-12-14T18:09:36.818Z,5.23
2017-12-14T18:12:04.413Z,5.21
2017-12-14T18:14:32.134Z,5.24
2017-12-14T18:16:59.735Z,5.28
2017-12-14T18:19:27.331Z,5.29
2017-12-14T18:21:54.964Z,5.30
2017-12-14T18:24:22.607Z,5.30
2017-12-14T18:26:50.206Z,5.29
2017-12-14T18:29:17.859Z,5.29
2017-12-14T18:31:45.494Z,5.29
2017-12-14T18:34:13.107Z,5.29
2017-12-14T18:36:40.713Z,5.29
2017-12-14T18:39:08.299Z,5.30
2017-12-14T18:41:37.515Z,5.28
2017-12-14T18:44:05.139Z,5.29
2017-12-14T18:46:32.751Z,5.32
2017-12-14T18:49:00.338Z,5.33
2017-12-14T18:51:27.928Z,5.32
2017-12-14T18:53:55.541Z,5.35
2017-12-14T18:56:23.148Z,5.34
2017-12-14T18:58:50.767Z,5.35
2017-12-14T19:01:18.446Z,5.31
2017-12-14T19:03:46.066Z,5.30
2017-12-14T19:06:13.660Z,5.25
2017-12-14T19:08:41.330Z,5.24
2017-12-14T19:11:08.941Z,5.25
2017-12-14T19:13:36.552Z,5.27
2017-12-14T19:16:04.171Z,5.30
2017-12-14T19:18:31.779Z,5.31
2017-12-14T19:20:59.374Z,5.33
2017-12-14T19:23:27.008Z,5.36
2017-12-14T19:25:54.647Z,5.37
2017-12-14T19:28:22.295Z,5.35
2017-12-14T19:30:49.870Z,5.34
2017-12-14T19:33:17.511Z,5.35
2017-12-14T19:35:45.090Z,5.34
2017-12-14T19:38:12.756Z,5.38
2017-12-14T19:40:40.423Z,5.36
2017-12-14T19:43:08.046Z,5.34
2017-12-14T19:45:35.643Z,5.34
2017-12-14T19:48:03.260Z,5.35
2017-12-14T19:50:30.896Z,5.35
2017-12-14T19:52:58.527Z,5.40
2017-12-14T19:55:26.132Z,5.36
2017-12-14T19:57:53.741Z,5.34
2017-12-14T20:00:21.452Z,5.34
2017-12-14T20:02:49.107Z,5.39
2017-12-14T20:05:16.721Z,5.35
2017-12-14T20:07:44.363Z,5.32
2017-12-14T20:10:12.028Z,5.35
2017-12-14T20:12:39.634Z,5.42
2017-12-14T20:15:07.216Z,5.43
2017-12-14T20:17:34.894Z,5.38
2017-12-14T20:20:02.503Z,5.33
2017-12-14T20:22:30.171Z,5.29
2017-12-14T20:24:57.749Z,5.24
2017-12-14T20:27:25.383Z,5.22
2017-12-14T20:29:52.991Z,5.23
2017-12-14T20:32:20.605Z,5.27
2017-12-14T20:34:48.289Z,5.30
2017-12-14T20:37:15.958Z,5.34
2017-12-14T20:39:43.578Z,5.39
2017-12-14T20:42:11.263Z,5.40
2017-12-14T20:44:38.862Z,5.39
2017-12-14T20:47:06.454Z,5.39
2017-12-14T20:49:34.197Z,5.35
2017-12-14T20:52:01.842Z,5.34
2017-12-14T20:54:29.444Z,5.38
2017-12-14T20:56:57.028Z,5.40
2017-12-14T20:59:24.674Z,5.42
2017-12-14T21:01:52.315Z,5.43
2017-12-14T21:04:19.915Z,5.44
2017-12-14T21:06:47.503Z,5.40
2017-12-14T21:09:15.138Z,5.40
2017-12-14T21:11:42.727Z,5.40
2017-12-14T21:14:10.427Z,5.43
2017-12-14T21:16:38.012Z,5.45
2017-12-14T21:19:05.603Z,5.47
2017-12-14T21:21:33.170Z,5.46
2017-12-14T21:24:00.770Z,5.45
2017-12-14T21:26:28.375Z,5.47
2017-12-14T21:28:55.993Z,5.51
2017-12-14T21:31:23.582Z,5.53
2017-12-14T21:33:51.214Z,5.55
2017-12-14T21:36:18.856Z,5.57
2017-12-14T21:38:46.485Z,5.56
2017-12-14T21:41:14.072Z,5.54
2017-12-14T21:43:41.688Z,5.50
2017-12-14T21:46:09.318Z,5.47
2017-12-14T21:48:36.900Z,5.44
2017-12-14T21:51:04.578Z,5.45
2017-12-14T21:53:32.190Z,5.36
2017-12-14T21:55:59.795Z,5.33
2017-12-14T21:58:27.397Z,5.29
2017-12-14T22:00:55.020Z,5.26
2017-12-14T22:03:22.732Z,5.24
2017-12-14T22:05:50.378Z,5.20
2017-12-14T22:08:17.980Z,5.14
2017-12-14T22:10:45.558Z,5.13
2017-12-14T22:13:13.230Z,5.14
2017-12-14T22:15:40.872Z,5.15
2017-12-14T22:18:08.443Z,5.18
2017-12-14T22:20:36.051Z,5.15
2017-12-14T22:23:03.660Z,5.15
2017-12-14T22:25:31.298Z,5.10
2017-12-14T22:27:58.896Z,5.10
2017-12-14T22:30:26.561Z,5.04
2017-12-14T22:32:54.147Z,5.05
2017-12-14T22:35:21.736Z,5.01
2017-12-14T22:37:49.354Z,4.99
2017-12-14T22:40:17.000Z,4.95
2017-12-14T22:42:44.579Z,4.88
2017-12-14T22:45:12.230Z,4.82
2017-12-14T22:47:39.847Z,4.82
2017-12-14T22:50:07.590Z,4.76
2017-12-14T22:52:35.214Z,4.76
2017-12-14T22:55:02.885Z,4.75
2017-12-14T22:57:30.562Z,4.84
2017-12-14T22:59:58.191Z,4.87
2017-12-14T23:02:25.866Z,4.95
2017-12-14T23:04:53.458Z,4.91
2017-12-14T23:07:21.033Z,4.92
2017-12-14T23:09:48.657Z,4.90
2017-12-14T23:12:16.253Z,4.91
2017-12-14T23:14:43.863Z,4.90
2017-12-14T23:17:11.439Z,4.90
2017-12-14T23:19:39.035Z,4.85
2017-12-14T23:22:06.620Z,4.84
2017-12-14T23:24:34.220Z,4.83
2017-12-14T23:27:01.849Z,4.84
2017-12-14T23:29:29.454Z,4.88
2017-12-14T23:31:57.192Z,4.91
2017-12-14T23:34:24.775Z,4.92
2017-12-14T23:36:52.355Z,4.89
2017-12-14T23:39:19.969Z,4.91
2017-12-14T23:41:47.564Z,4.88
2017-12-14T23:44:15.194Z,4.89
2017-12-14T23:46:42.807Z,4.90
2017-12-14T23:49:10.418Z,4.87
2017-12-14T23:51:37.994Z,4.87
2017-12-14T23:54:05.654Z,4.87
2017-12-14T23:56:33.259Z,4.88
2017-12-14T23:59:00.861Z,4.88
